Alfred, Maine
Current Conditions -  °F | °C
As of 5:15 AM on Saturday 22 Nov 2014 (Local Time) from KSFM Reporting Station
Clear Clear  
Wind Chill:   Ceiling: Unl
Heat Index: 19°   Visibility: 10mi
Dew Point:   Wind: 10mph
Humidity: 58%   Direction: 260°W
Pressure: 30.35"   Gusts: NA
Location:  43.48°N, 70.72°W
Report Text: KSFM 221015Z AUTO 26009KT 10SM CLR M07/M14 A3035 RMK AO1
Loading
Personal Weather Stations






























Interactive Weather Map New forecast layout! Learn more

10-Day Weather Forecast

Advertisements
Track Severe Weather on mobile